Time;durP1;ratioP1;P1;durP2;ratioP2;P2;SDS_P1;SDS_P2;PMS_P1;PMS_P2;Temp;Humidity;BMP_temperature;BMP_pressure;BME280_temperature;BME280_humidity;BME280_pressure;Samples;Min_cycle;Max_cycle;Signal;HPM_P1;HPM_P2
2022/12/25 00:00:57;;;;;;;63.10;7.20;;;;;;;;;;5033174;28;20473;-76
2022/12/25 00:03:26;;;;;;;65.10;7.20;;;;;;;;;;5033261;28;20449;-76
2022/12/25 00:05:53;;;;;;;66.90;8.00;;;;;;;;;;5033389;28;20457;-76
2022/12/25 00:08:20;;;;;;;69.80;8.70;;;;;;;;;;5033339;28;20445;-76
2022/12/25 00:10:47;;;;;;;66.70;8.47;;;;;;;;;;5032507;28;20476;-76
2022/12/25 00:13:14;;;;;;;65.77;8.53;;;;;;;;;;5033234;28;20456;-76
2022/12/25 00:15:41;;;;;;;63.70;8.33;;;;;;;;;;5033205;28;20457;-76
2022/12/25 00:18:08;;;;;;;66.97;8.20;;;;;;;;;;5033035;28;20729;-76
2022/12/25 00:20:37;;;;;;;65.80;8.50;;;;;;;;;;5032517;28;20471;-76
2022/12/25 00:23:04;;;;;;;67.17;8.30;;;;;;;;;;5033302;28;20445;-76
2022/12/25 00:25:31;;;;;;;69.10;9.00;;;;;;;;;;5033001;28;20456;-76
2022/12/25 00:27:58;;;;;;;65.87;8.30;;;;;;;;;;5032973;28;20485;-76
2022/12/25 00:30:25;;;;;;;65.17;8.47;;;;;;;;;;5031867;28;20515;-76
2022/12/25 00:32:52;;;;;;;65.67;8.47;;;;;;;;;;5033150;28;20455;-76
2022/12/25 00:35:19;;;;;;;62.67;7.77;;;;;;;;;;5032816;28;20458;-76
2022/12/25 00:37:48;;;;;;;63.50;7.87;;;;;;;;;;5033151;28;20453;-76
2022/12/25 00:40:15;;;;;;;67.00;7.80;;;;;;;;;;5031955;28;20813;-76
2022/12/25 00:42:42;;;;;;;63.17;7.40;;;;;;;;;;5032713;28;20449;-76
2022/12/25 00:45:10;;;;;;;64.53;7.90;;;;;;;;;;5032558;28;20907;-76
2022/12/25 00:47:37;;;;;;;68.60;9.27;;;;;;;;;;5032388;28;21055;-76
2022/12/25 00:50:04;;;;;;;66.60;8.90;;;;;;;;;;5031827;28;20453;-76
2022/12/25 00:52:31;;;;;;;65.07;8.73;;;;;;;;;;5032388;28;20456;-76
2022/12/25 00:55:00;;;;;;;65.30;8.27;;;;;;;;;;5032321;28;20945;-76
2022/12/25 00:57:27;;;;;;;66.47;8.17;;;;;;;;;;5032303;28;20456;-76
2022/12/25 00:59:54;;;;;;;64.80;8.40;;;;;;;;;;5031471;28;20983;-76
2022/12/25 01:02:24;;;;;;;68.17;8.30;;;;;;;;;;5031600;28;20477;-76
2022/12/25 01:04:52;;;;;;;65.27;9.50;;;;;;;;;;5032394;28;20457;-76
2022/12/25 01:07:19;;;;;;;70.60;10.27;;;;;;;;;;5032307;28;20495;-76
2022/12/25 01:12:34;;;;;;;67.57;8.97;;;;;;;;;;5032217;28;20428;-76
2022/12/25 01:15:01;;;;;;;65.20;9.73;;;;;;;;;;5032282;28;20457;-76
2022/12/25 01:17:28;;;;;;;66.30;9.33;;;;;;;;;;5031974;28;20441;-76
2022/12/25 01:19:55;;;;;;;67.07;9.73;;;;;;;;;;5031342;28;20484;-76
2022/12/25 01:22:22;;;;;;;66.17;9.20;;;;;;;;;;5031820;28;20481;-76
2022/12/25 01:24:49;;;;;;;67.87;10.23;;;;;;;;;;5032012;28;20450;-76
2022/12/25 01:27:16;;;;;;;67.00;10.53;;;;;;;;;;5032046;28;20488;-76
2022/12/25 01:29:46;;;;;;;73.17;9.80;;;;;;;;;;5031283;28;20834;-76
2022/12/25 01:32:13;;;;;;;64.57;9.77;;;;;;;;;;5031731;28;20481;-76
2022/12/25 01:34:40;;;;;;;66.50;9.00;;;;;;;;;;5031950;28;20455;-76
2022/12/25 01:37:07;;;;;;;65.43;8.57;;;;;;;;;;5031665;28;20449;-76
2022/12/25 01:39:35;;;;;;;64.73;8.60;;;;;;;;;;5031121;28;20479;-76
2022/12/25 01:42:02;;;;;;;65.80;9.10;;;;;;;;;;5031863;28;20476;-76
2022/12/25 01:44:47;;;;;;;66.90;9.70;;;;;;;;;;5031797;28;20460;-76
2022/12/25 01:47:17;;;;;;;65.23;10.20;;;;;;;;;;5031581;28;21021;-76
2022/12/25 01:49:45;;;;;;;64.87;9.30;;;;;;;;;;5030827;28;20465;-76
2022/12/25 01:52:15;;;;;;;66.10;9.90;;;;;;;;;;5031557;28;20993;-76
2022/12/25 01:54:43;;;;;;;67.43;8.90;;;;;;;;;;5031867;28;20450;-76
2022/12/25 01:57:12;;;;;;;65.00;9.13;;;;;;;;;;5031591;28;20450;-76
2022/12/25 01:59:40;;;;;;;64.80;9.07;;;;;;;;;;5030796;28;20968;-76
2022/12/25 02:02:07;;;;;;;69.27;10.43;;;;;;;;;;5031427;28;20472;-76
2022/12/25 02:04:38;;;;;;;67.80;11.20;;;;;;;;;;5031776;28;20449;-76
2022/12/25 02:07:06;;;;;;;65.77;10.13;;;;;;;;;;5031504;28;20554;-76
2022/12/25 02:09:33;;;;;;;65.40;10.20;;;;;;;;;;5030881;28;20467;-76
2022/12/25 02:12:00;;;;;;;67.27;10.60;;;;;;;;;;5031556;28;20473;-76
2022/12/25 02:14:28;;;;;;;73.40;10.60;;;;;;;;;;5034813;28;20539;-76
2022/12/25 02:16:59;;;;;;;66.20;10.07;;;;;;;;;;5035558;28;20441;-76
2022/12/25 02:19:37;;;;;;;65.80;10.10;;;;;;;;;;5034811;28;20446;-76
2022/12/25 02:22:13;;;;;;;69.33;10.17;;;;;;;;;;5035348;28;20469;-76
2022/12/25 02:24:52;;;;;;;66.37;9.83;;;;;;;;;;5031359;28;20461;-76
2022/12/25 02:27:26;;;;;;;67.77;10.30;;;;;;;;;;5035142;28;20534;-76
2022/12/25 02:30:00;;;;;;;67.30;10.57;;;;;;;;;;5034633;28;20453;-76
2022/12/25 02:32:29;;;;;;;66.27;10.20;;;;;;;;;;5035753;28;20467;-76
2022/12/25 02:35:01;;;;;;;64.70;9.30;;;;;;;;;;5042572;28;20471;-76
2022/12/25 02:37:30;;;;;;;66.47;9.50;;;;;;;;;;5055233;28;20809;-76
2022/12/25 02:40:01;;;;;;;65.67;9.40;;;;;;;;;;5053964;28;20464;-76
2022/12/25 03:07:19;;;;;;;67.10;9.17;;;;;;;;;;5054689;28;21003;-76
2022/12/25 03:12:50;;;;;;;67.93;9.27;;;;;;;;;;4992816;28;20426;-76
2022/12/25 03:18:05;;;;;;;65.50;9.10;;;;;;;;;;5028572;28;20431;-77
2022/12/25 03:29:03;;;;;;;66.03;9.00;;;;;;;;;;4991724;28;20570;-76
2022/12/25 03:31:32;;;;;;;64.43;8.73;;;;;;;;;;5026888;28;20476;-76
2022/12/25 04:38:00;;;;;;;67.87;9.00;;;;;;;;;;5052835;28;20515;-76
2022/12/25 04:40:28;;;;;;;63.57;8.83;;;;;;;;;;5051952;28;20822;-76
2022/12/25 04:42:55;;;;;;;65.50;9.30;;;;;;;;;;5052793;28;20825;-76
2022/12/25 04:45:22;;;;;;;67.70;9.13;;;;;;;;;;5052744;28;20444;-76
2022/12/25 04:47:49;;;;;;;65.20;8.40;;;;;;;;;;5052420;28;20853;-76
2022/12/25 04:50:16;;;;;;;63.80;8.60;;;;;;;;;;5051474;28;20452;-76
2022/12/25 04:52:44;;;;;;;63.50;8.53;;;;;;;;;;5052547;28;20852;-76
2022/12/25 04:55:11;;;;;;;65.40;8.07;;;;;;;;;;5052363;28;20456;-76
2022/12/25 04:57:39;;;;;;;64.27;7.60;;;;;;;;;;5052977;28;20452;-76
2022/12/25 05:00:07;;;;;;;62.10;7.60;;;;;;;;;;5051452;28;20452;-76
2022/12/25 05:02:34;;;;;;;64.97;8.30;;;;;;;;;;5052141;28;20462;-76
2022/12/25 05:05:01;;;;;;;64.90;7.60;;;;;;;;;;5052358;28;20454;-76
2022/12/25 05:07:29;;;;;;;61.30;7.10;;;;;;;;;;5052045;28;20486;-76
2022/12/25 05:09:56;;;;;;;64.60;7.13;;;;;;;;;;5051497;28;20448;-76
2022/12/25 05:12:23;;;;;;;64.50;8.03;;;;;;;;;;5052271;28;20476;-76
2022/12/25 05:14:51;;;;;;;62.27;6.87;;;;;;;;;;5052110;28;20444;-76
2022/12/25 05:17:18;;;;;;;61.53;6.93;;;;;;;;;;5052005;28;20967;-76
2022/12/25 05:19:45;;;;;;;64.00;7.27;;;;;;;;;;5051662;28;20456;-76
2022/12/25 05:22:13;;;;;;;61.37;7.10;;;;;;;;;;5052056;28;20479;-76
2022/12/25 05:24:40;;;;;;;62.00;7.00;;;;;;;;;;5051851;28;20975;-76
2022/12/25 05:27:07;;;;;;;62.60;6.67;;;;;;;;;;5052152;28;20448;-76
2022/12/25 05:29:34;;;;;;;62.47;7.20;;;;;;;;;;5051171;28;20547;-76
2022/12/25 05:32:02;;;;;;;64.70;6.53;;;;;;;;;;5051801;28;20873;-76
2022/12/25 05:34:29;;;;;;;60.70;6.50;;;;;;;;;;5051872;28;20448;-76
2022/12/25 05:36:56;;;;;;;62.07;6.63;;;;;;;;;;5051959;28;20827;-76
2022/12/25 05:39:24;;;;;;;63.30;6.83;;;;;;;;;;5051065;28;20448;-76
2022/12/25 05:41:51;;;;;;;66.43;6.80;;;;;;;;;;5051730;28;20468;-76
2022/12/25 05:44:18;;;;;;;61.20;6.30;;;;;;;;;;5051838;28;20872;-76
2022/12/25 05:46:45;;;;;;;60.17;5.80;;;;;;;;;;5052055;28;20444;-76
2022/12/25 05:49:13;;;;;;;63.20;5.90;;;;;;;;;;5056476;28;20479;-76
2022/12/25 05:51:40;;;;;;;66.10;5.90;;;;;;;;;;5057844;28;20468;-76
2022/12/25 05:54:07;;;;;;;60.87;6.43;;;;;;;;;;5058246;28;20467;-76
2022/12/25 05:56:35;;;;;;;60.27;6.00;;;;;;;;;;5058221;28;20470;-76
2022/12/25 05:59:02;;;;;;;60.60;5.70;;;;;;;;;;5057352;28;20444;-76
2022/12/25 06:01:29;;;;;;;61.17;5.97;;;;;;;;;;5058077;28;20976;-76
2022/12/25 06:03:56;;;;;;;60.87;5.60;;;;;;;;;;5058099;28;20456;-76
2022/12/25 06:06:25;;;;;;;62.00;5.67;;;;;;;;;;5058120;28;20506;-76
2022/12/25 06:08:53;;;;;;;60.10;5.90;;;;;;;;;;5057272;28;21033;-76
2022/12/25 06:11:21;;;;;;;62.23;6.00;;;;;;;;;;5057918;28;20476;-76
2022/12/25 06:13:49;;;;;;;61.70;5.73;;;;;;;;;;5058277;28;20814;-76
2022/12/25 06:16:16;;;;;;;61.70;6.90;;;;;;;;;;5058160;28;20452;-76
2022/12/25 06:18:45;;;;;;;61.77;6.57;;;;;;;;;;5057145;28;20458;-76
2022/12/25 06:21:13;;;;;;;64.30;6.90;;;;;;;;;;5057890;28;20474;-76
2022/12/25 06:23:42;;;;;;;63.07;6.67;;;;;;;;;;5058032;28;20451;-76
2022/12/25 06:26:10;;;;;;;62.80;6.50;;;;;;;;;;5057849;28;20462;-76
2022/12/25 06:28:38;;;;;;;65.03;7.40;;;;;;;;;;5057027;28;20483;-76
2022/12/25 06:31:08;;;;;;;60.73;6.30;;;;;;;;;;5057696;28;20498;-76
2022/12/25 06:33:37;;;;;;;63.77;7.27;;;;;;;;;;5058016;28;20486;-76
2022/12/25 06:36:08;;;;;;;64.33;7.47;;;;;;;;;;5058084;28;20447;-76
2022/12/25 06:38:35;;;;;;;64.70;7.13;;;;;;;;;;5057120;28;20451;-76
2022/12/25 06:41:09;;;;;;;64.83;6.20;;;;;;;;;;5057933;28;20474;-76
2022/12/25 06:43:36;;;;;;;60.87;6.60;;;;;;;;;;5057987;28;20467;-76
2022/12/25 06:46:04;;;;;;;63.80;7.90;;;;;;;;;;5057737;28;20451;-76
2022/12/25 06:48:32;;;;;;;62.50;7.10;;;;;;;;;;5057461;28;20479;-76
2022/12/25 06:50:59;;;;;;;61.77;6.10;;;;;;;;;;5057553;28;20467;-76
2022/12/25 06:53:26;;;;;;;61.17;6.60;;;;;;;;;;5057985;28;20542;-76
2022/12/25 06:55:53;;;;;;;61.50;7.07;;;;;;;;;;5057817;28;20454;-76
2022/12/25 06:58:22;;;;;;;61.20;7.23;;;;;;;;;;5057734;28;20452;-76
2022/12/25 07:00:49;;;;;;;61.80;6.50;;;;;;;;;;5052756;28;20472;-76
2022/12/25 07:03:19;;;;;;;64.67;6.77;;;;;;;;;;5054435;28;20444;-76
2022/12/25 07:05:47;;;;;;;63.30;7.30;;;;;;;;;;5054454;28;20798;-76
2022/12/25 07:08:14;;;;;;;62.07;6.57;;;;;;;;;;5054629;28;20496;-76
2022/12/25 07:10:41;;;;;;;62.87;6.70;;;;;;;;;;5053893;28;20471;-76
2022/12/25 07:13:08;;;;;;;60.23;6.33;;;;;;;;;;5054410;28;20452;-76
2022/12/25 07:15:36;;;;;;;62.17;6.80;;;;;;;;;;5054272;28;20448;-76
2022/12/25 07:18:03;;;;;;;61.40;6.13;;;;;;;;;;5054097;28;20448;-76
2022/12/25 07:20:31;;;;;;;64.23;6.17;;;;;;;;;;5053895;28;20490;-76
2022/12/25 07:22:58;;;;;;;60.27;6.20;;;;;;;;;;5054311;28;20444;-76
2022/12/25 07:25:25;;;;;;;62.00;6.80;;;;;;;;;;5054131;28;20459;-76
2022/12/25 07:27:52;;;;;;;61.87;6.50;;;;;;;;;;5053993;28;20460;-76
2022/12/25 07:30:19;;;;;;;64.87;6.73;;;;;;;;;;5053097;28;20448;-76
2022/12/25 07:32:48;;;;;;;63.13;6.50;;;;;;;;;;5053851;28;20452;-76
2022/12/25 07:35:15;;;;;;;61.60;6.60;;;;;;;;;;5054070;28;20873;-76
2022/12/25 07:37:42;;;;;;;62.57;7.03;;;;;;;;;;5054019;28;20484;-76
2022/12/25 07:40:10;;;;;;;61.30;6.90;;;;;;;;;;5053086;28;20821;-76
2022/12/25 07:42:37;;;;;;;61.87;7.40;;;;;;;;;;5053810;28;20470;-77
2022/12/25 07:45:04;;;;;;;62.67;7.00;;;;;;;;;;5053630;28;20448;-76
2022/12/25 07:47:32;;;;;;;62.10;7.30;;;;;;;;;;5053846;28;20444;-76
2022/12/25 07:50:00;;;;;;;64.57;8.13;;;;;;;;;;5052922;28;20488;-76
2022/12/25 07:52:27;;;;;;;62.43;8.63;;;;;;;;;;5053619;28;20448;-76
2022/12/25 07:54:54;;;;;;;61.50;7.40;;;;;;;;;;5053523;28;20458;-76
2022/12/25 07:57:21;;;;;;;63.43;7.70;;;;;;;;;;5053519;28;20457;-76
2022/12/25 07:59:48;;;;;;;62.93;8.00;;;;;;;;;;5052621;28;20452;-76
2022/12/25 08:02:15;;;;;;;62.17;7.80;;;;;;;;;;5053279;28;20464;-76
2022/12/25 08:04:43;;;;;;;62.30;7.60;;;;;;;;;;5053313;28;20483;-76
2022/12/25 08:07:11;;;;;;;66.20;7.90;;;;;;;;;;5053294;28;20972;-76
2022/12/25 08:09:38;;;;;;;64.40;7.40;;;;;;;;;;5052536;28;20491;-76
2022/12/25 08:12:05;;;;;;;62.67;7.37;;;;;;;;;;5052749;28;20997;-76
2022/12/25 08:14:32;;;;;;;64.47;8.37;;;;;;;;;;5053158;28;20444;-76
2022/12/25 08:17:00;;;;;;;63.33;7.30;;;;;;;;;;5053279;28;20444;-76
2022/12/25 08:19:27;;;;;;;63.57;7.10;;;;;;;;;;5052173;28;20949;-76
2022/12/25 08:21:55;;;;;;;62.60;8.10;;;;;;;;;;5052998;28;20468;-76
2022/12/25 08:24:23;;;;;;;62.77;8.17;;;;;;;;;;5052898;28;21073;-76
2022/12/25 08:26:50;;;;;;;64.57;8.33;;;;;;;;;;5052998;28;20454;-76
2022/12/25 08:29:17;;;;;;;60.80;7.20;;;;;;;;;;5052150;28;20495;-76
2022/12/25 08:31:45;;;;;;;62.47;8.60;;;;;;;;;;5052608;28;21049;-76
2022/12/25 08:34:12;;;;;;;62.50;7.60;;;;;;;;;;5052974;28;20448;-76
2022/12/25 08:36:40;;;;;;;63.07;7.13;;;;;;;;;;5052703;28;20448;-76
2022/12/25 08:39:07;;;;;;;65.60;7.43;;;;;;;;;;5051847;28;20959;-76
2022/12/25 08:41:36;;;;;;;64.87;6.47;;;;;;;;;;5052477;28;20482;-76
2022/12/25 08:44:03;;;;;;;62.40;7.90;;;;;;;;;;5052606;28;20949;-77
2022/12/25 08:46:30;;;;;;;61.40;6.80;;;;;;;;;;5052785;28;20952;-76
2022/12/25 08:48:57;;;;;;;62.17;7.23;;;;;;;;;;5051654;28;20488;-76
2022/12/25 08:51:25;;;;;;;60.77;6.47;;;;;;;;;;5052652;28;20586;-76
2022/12/25 08:53:53;;;;;;;60.77;6.77;;;;;;;;;;5052444;28;20443;-76
2022/12/25 08:56:20;;;;;;;62.30;7.43;;;;;;;;;;5052617;28;20444;-76
2022/12/25 08:58:49;;;;;;;62.00;7.90;;;;;;;;;;5051759;28;20833;-76
2022/12/25 09:01:16;;;;;;;63.83;7.70;;;;;;;;;;5052321;28;20472;-76
2022/12/25 09:03:44;;;;;;;62.10;7.37;;;;;;;;;;5052090;28;20455;-76
2022/12/25 09:06:12;;;;;;;62.97;6.60;;;;;;;;;;5052352;28;20451;-76
2022/12/25 09:08:39;;;;;;;60.90;6.30;;;;;;;;;;5051192;28;21280;-76
2022/12/25 09:11:07;;;;;;;60.70;5.83;;;;;;;;;;5052255;28;20568;-76
2022/12/25 09:13:34;;;;;;;60.77;6.30;;;;;;;;;;5052356;28;20453;-76
2022/12/25 09:16:05;;;;;;;59.57;6.07;;;;;;;;;;5052094;28;20460;-76
2022/12/25 09:18:32;;;;;;;61.43;5.87;;;;;;;;;;5051522;28;20452;-76
2022/12/25 09:21:00;;;;;;;62.40;6.43;;;;;;;;;;5051870;28;20475;-76
2022/12/25 09:23:27;;;;;;;61.20;6.67;;;;;;;;;;5051161;28;20460;-76
2022/12/25 09:25:54;;;;;;;62.97;6.57;;;;;;;;;;5052211;28;20456;-76
2022/12/25 09:28:22;;;;;;;60.30;6.40;;;;;;;;;;5051784;28;20835;-76
2022/12/25 09:30:50;;;;;;;62.80;6.73;;;;;;;;;;5051057;28;20480;-76
2022/12/25 09:33:19;;;;;;;69.37;6.70;;;;;;;;;;5051899;28;20475;-76
2022/12/25 09:35:53;;;;;;;63.40;6.10;;;;;;;;;;5051708;28;20466;-76
2022/12/25 09:38:20;;;;;;;64.33;6.30;;;;;;;;;;5051720;28;20953;-76
2022/12/25 09:40:47;;;;;;;61.97;6.80;;;;;;;;;;5051168;28;20460;-76
2022/12/25 09:43:16;;;;;;;60.10;5.53;;;;;;;;;;5051872;28;20452;-76
2022/12/25 09:45:44;;;;;;;60.90;6.67;;;;;;;;;;5051495;28;20452;-76
2022/12/25 09:48:13;;;;;;;62.00;6.50;;;;;;;;;;5051457;28;20456;-76
2022/12/25 09:50:44;;;;;;;62.40;6.40;;;;;;;;;;5050988;28;20495;-76
2022/12/25 09:53:16;;;;;;;60.43;5.50;;;;;;;;;;5051824;28;20452;-76
2022/12/25 09:55:46;;;;;;;60.80;5.90;;;;;;;;;;5051646;28;20476;-76
2022/12/25 09:58:13;;;;;;;62.43;6.07;;;;;;;;;;5051596;28;20941;-76
2022/12/25 10:00:42;;;;;;;60.27;5.20;;;;;;;;;;5050633;28;20464;-76
2022/12/25 10:03:25;;;;;;;59.80;4.73;;;;;;;;;;5051736;28;20444;-76
2022/12/25 10:06:12;;;;;;;61.57;5.37;;;;;;;;;;5051901;28;20452;-76
2022/12/25 10:08:50;;;;;;;61.57;5.40;;;;;;;;;;5050997;28;20460;-76
2022/12/25 10:11:22;;;;;;;59.57;4.90;;;;;;;;;;5011398;28;20477;-76
2022/12/25 10:13:55;;;;;;;59.90;4.60;;;;;;;;;;5011929;28;20457;-76
2022/12/25 10:16:24;;;;;;;59.50;4.67;;;;;;;;;;5011790;28;20453;-74
2022/12/25 10:19:01;;;;;;;60.40;4.63;;;;;;;;;;5011046;28;20462;-74
2022/12/25 10:21:29;;;;;;;59.07;4.60;;;;;;;;;;5011553;28;20842;-76
2022/12/25 10:24:02;;;;;;;59.37;4.80;;;;;;;;;;5011907;28;20494;-76
2022/12/25 10:26:31;;;;;;;59.63;4.50;;;;;;;;;;5012100;28;20446;-76
2022/12/25 10:28:59;;;;;;;59.23;5.17;;;;;;;;;;5011018;28;20493;-76
2022/12/25 10:31:29;;;;;;;62.10;4.80;;;;;;;;;;5011416;28;20560;-76
2022/12/25 10:33:58;;;;;;;59.37;4.27;;;;;;;;;;5012397;28;20453;-76
2022/12/25 10:36:26;;;;;;;59.63;4.87;;;;;;;;;;5015586;28;20511;-76
2022/12/25 10:38:54;;;;;;;60.13;4.80;;;;;;;;;;5014569;28;20446;-75
2022/12/25 10:41:26;;;;;;;59.33;4.57;;;;;;;;;;5015342;28;20474;-75
2022/12/25 10:43:54;;;;;;;59.20;4.40;;;;;;;;;;5015309;28;20468;-75
2022/12/25 10:46:23;;;;;;;59.20;4.57;;;;;;;;;;5015351;28;20461;-75
2022/12/25 10:48:52;;;;;;;59.50;4.67;;;;;;;;;;5014415;28;20508;-75
2022/12/25 10:51:27;;;;;;;60.03;4.50;;;;;;;;;;5014827;28;20480;-76
2022/12/25 10:53:55;;;;;;;59.80;4.70;;;;;;;;;;5015200;28;20475;-75
2022/12/25 10:56:22;;;;;;;59.37;4.30;;;;;;;;;;5015744;28;20449;-75
2022/12/25 10:58:49;;;;;;;58.87;4.40;;;;;;;;;;5014178;28;20457;-75
2022/12/25 11:01:17;;;;;;;59.37;5.00;;;;;;;;;;5014976;28;20478;-75
2022/12/25 11:03:45;;;;;;;59.57;4.53;;;;;;;;;;5014852;28;20449;-75
2022/12/25 11:06:22;;;;;;;59.83;4.40;;;;;;;;;;5014922;28;20452;-75
2022/12/25 11:08:51;;;;;;;59.33;4.40;;;;;;;;;;5014009;28;20446;-74
2022/12/25 11:11:20;;;;;;;59.47;4.40;;;;;;;;;;5014558;28;20462;-75
2022/12/25 11:13:49;;;;;;;60.37;4.70;;;;;;;;;;5015145;28;20446;-74
2022/12/25 11:16:26;;;;;;;59.10;3.80;;;;;;;;;;5014821;28;20520;-74
2022/12/25 11:18:54;;;;;;;59.50;4.33;;;;;;;;;;5013736;28;20458;-74
2022/12/25 11:21:23;;;;;;;59.63;4.47;;;;;;;;;;5014317;28;20470;-74
2022/12/25 11:23:51;;;;;;;61.10;4.33;;;;;;;;;;5014257;28;20449;-74
2022/12/25 11:26:20;;;;;;;59.23;3.90;;;;;;;;;;5014511;28;20453;-74
2022/12/25 11:28:49;;;;;;;60.70;4.30;;;;;;;;;;5013714;28;20442;-74
2022/12/25 11:31:18;;;;;;;61.30;4.23;;;;;;;;;;5014120;28;20486;-75
2022/12/25 11:33:48;;;;;;;59.07;4.30;;;;;;;;;;5014428;28;20519;-76
2022/12/25 11:36:18;;;;;;;58.67;3.90;;;;;;;;;;5014275;28;20458;-76
2022/12/25 11:38:45;;;;;;;59.37;3.93;;;;;;;;;;5013723;28;20450;-75
2022/12/25 11:41:13;;;;;;;59.77;4.00;;;;;;;;;;5014239;28;20477;-75
2022/12/25 11:43:45;;;;;;;59.57;4.10;;;;;;;;;;5014269;28;20965;-75
2022/12/25 11:46:15;;;;;;;62.43;4.10;;;;;;;;;;5013486;28;20457;-75
2022/12/25 11:48:44;;;;;;;63.57;4.20;;;;;;;;;;5013373;28;20829;-76
2022/12/25 11:51:11;;;;;;;60.87;4.33;;;;;;;;;;5013769;28;20500;-76
2022/12/25 11:53:41;;;;;;;59.70;4.77;;;;;;;;;;5013997;28;20457;-75
2022/12/25 11:56:09;;;;;;;60.77;4.20;;;;;;;;;;5013891;28;20462;-75
2022/12/25 11:58:38;;;;;;;58.80;3.67;;;;;;;;;;5013149;28;20461;-75
2022/12/25 12:01:08;;;;;;;59.63;3.80;;;;;;;;;;5013826;28;20468;-75
2022/12/25 12:03:36;;;;;;;59.07;4.43;;;;;;;;;;5013787;28;20460;-75
2022/12/25 12:06:05;;;;;;;58.90;4.00;;;;;;;;;;5013776;28;20453;-76
2022/12/25 12:08:33;;;;;;;61.07;4.40;;;;;;;;;;5013311;28;20822;-76
2022/12/25 12:11:15;;;;;;;59.80;4.20;;;;;;;;;;5028941;28;20500;-76
2022/12/25 12:13:47;;;;;;;59.30;4.50;;;;;;;;;;5033298;28;20511;-76
2022/12/25 12:16:16;;;;;;;61.20;4.70;;;;;;;;;;5033751;28;20445;-76
2022/12/25 12:18:44;;;;;;;60.10;4.40;;;;;;;;;;5033085;28;20456;-76
2022/12/25 12:21:20;;;;;;;59.77;4.20;;;;;;;;;;5033318;28;20465;-76
2022/12/25 12:23:49;;;;;;;58.70;4.17;;;;;;;;;;5033517;28;20445;-76
2022/12/25 12:26:18;;;;;;;59.10;4.17;;;;;;;;;;5033343;28;20457;-76
2022/12/25 12:28:46;;;;;;;58.87;4.07;;;;;;;;;;5032672;28;20449;-76
2022/12/25 12:31:14;;;;;;;59.00;4.30;;;;;;;;;;5033066;28;21013;-75
2022/12/25 12:33:44;;;;;;;59.10;4.07;;;;;;;;;;5033343;28;20453;-75
2022/12/25 12:36:12;;;;;;;59.90;4.00;;;;;;;;;;5033427;28;20451;-75
2022/12/25 12:38:42;;;;;;;58.67;3.50;;;;;;;;;;5032352;28;20844;-76
2022/12/25 12:41:10;;;;;;;58.97;3.90;;;;;;;;;;5032680;28;20477;-75
2022/12/25 12:43:39;;;;;;;63.57;8.07;;;;;;;;;;5032898;28;20532;-75
2022/12/25 12:46:08;;;;;;;90.03;29.20;;;;;;;;;;5033068;28;20449;-75
2022/12/25 12:48:40;;;;;;;62.40;7.07;;;;;;;;;;5032103;28;20448;-75
2022/12/25 12:51:09;;;;;;;61.60;4.60;;;;;;;;;;5032652;28;20496;-75
2022/12/25 12:53:38;;;;;;;59.00;4.60;;;;;;;;;;5032651;28;20467;-75
2022/12/25 12:56:18;;;;;;;59.37;4.30;;;;;;;;;;5032840;28;20516;-75
2022/12/25 12:58:49;;;;;;;58.50;3.87;;;;;;;;;;5030764;28;20540;-76
2022/12/25 13:01:27;;;;;;;58.77;3.97;;;;;;;;;;5032454;28;21055;-76
2022/12/25 13:04:04;;;;;;;58.60;3.87;;;;;;;;;;5032388;28;20471;-75
2022/12/25 13:06:34;;;;;;;59.23;3.97;;;;;;;;;;5032631;28;20848;-75
2022/12/25 13:09:06;;;;;;;58.90;3.90;;;;;;;;;;5031657;28;20459;-75
2022/12/25 13:11:37;;;;;;;59.27;4.00;;;;;;;;;;5032320;28;20544;-75
2022/12/25 13:14:05;;;;;;;60.60;3.50;;;;;;;;;;5032331;28;20459;-75
2022/12/25 13:16:35;;;;;;;59.27;3.80;;;;;;;;;;5032142;28;20444;-76
2022/12/25 13:19:06;;;;;;;58.07;3.50;;;;;;;;;;5031596;28;20877;-75
2022/12/25 13:21:35;;;;;;;57.73;3.20;;;;;;;;;;5032223;28;20488;-75
2022/12/25 13:24:06;;;;;;;59.47;3.60;;;;;;;;;;5032153;28;20840;-76
2022/12/25 13:26:33;;;;;;;58.93;3.70;;;;;;;;;;5032134;28;20453;-75
2022/12/25 13:29:00;;;;;;;59.23;3.53;;;;;;;;;;5031397;28;21003;-76
2022/12/25 13:31:28;;;;;;;58.03;3.33;;;;;;;;;;5032240;28;20485;-76
2022/12/25 13:33:57;;;;;;;65.83;11.63;;;;;;;;;;5032715;28;20449;-76
2022/12/25 13:36:25;;;;;;;58.70;3.87;;;;;;;;;;5032146;28;20495;-75
2022/12/25 13:38:55;;;;;;;61.47;7.50;;;;;;;;;;5031257;28;20852;-76
2022/12/25 13:44:15;;;;;;;58.57;3.60;;;;;;;;;;5032230;28;20425;-76
2022/12/25 13:46:43;;;;;;;58.50;3.57;;;;;;;;;;5032291;28;20938;-76
2022/12/25 13:49:14;;;;;;;59.63;3.30;;;;;;;;;;5031253;28;21000;-76
2022/12/25 13:51:41;;;;;;;58.90;3.77;;;;;;;;;;5032083;28;20473;-76
2022/12/25 13:54:11;;;;;;;59.20;4.10;;;;;;;;;;5032325;28;20445;-76
2022/12/25 13:56:38;;;;;;;59.80;4.10;;;;;;;;;;5032144;28;20457;-76
2022/12/25 13:59:05;;;;;;;59.93;4.90;;;;;;;;;;5031198;28;20555;-76
2022/12/25 14:01:32;;;;;;;58.90;4.10;;;;;;;;;;5031595;28;20495;-76
2022/12/25 14:04:00;;;;;;;58.20;3.40;;;;;;;;;;5031634;28;20453;-76
2022/12/25 14:06:28;;;;;;;58.20;3.70;;;;;;;;;;5031579;28;20450;-76
2022/12/25 14:08:56;;;;;;;59.47;4.40;;;;;;;;;;5032095;28;20460;-76
2022/12/25 14:11:26;;;;;;;60.70;4.23;;;;;;;;;;5035693;28;20477;-76
2022/12/25 14:13:57;;;;;;;60.00;4.50;;;;;;;;;;5035475;28;20968;-75
2022/12/25 14:16:24;;;;;;;58.97;4.33;;;;;;;;;;5035672;28;20961;-75
2022/12/25 14:18:52;;;;;;;60.33;4.80;;;;;;;;;;5034654;28;20457;-76
2022/12/25 14:21:25;;;;;;;59.70;4.60;;;;;;;;;;5035621;28;20493;-75
2022/12/25 14:23:52;;;;;;;59.40;4.83;;;;;;;;;;5035423;28;20455;-75
2022/12/25 14:26:20;;;;;;;63.23;4.40;;;;;;;;;;5035616;28;20445;-75
2022/12/25 14:28:51;;;;;;;59.40;4.90;;;;;;;;;;5034886;28;20961;-75
2022/12/25 14:31:18;;;;;;;61.17;5.77;;;;;;;;;;5035176;28;21162;-75
2022/12/25 14:33:46;;;;;;;59.80;5.07;;;;;;;;;;5035176;28;20452;-75
2022/12/25 14:36:14;;;;;;;62.30;7.10;;;;;;;;;;5035358;28;20452;-75
2022/12/25 14:38:42;;;;;;;59.60;4.83;;;;;;;;;;5034553;28;20449;-75
2022/12/25 14:41:19;;;;;;;61.97;6.93;;;;;;;;;;5034971;28;21012;-76
2022/12/25 14:43:53;;;;;;;64.83;7.63;;;;;;;;;;5035009;28;20471;-75
2022/12/25 14:46:23;;;;;;;72.13;13.60;;;;;;;;;;5034975;28;20947;-75
2022/12/25 14:48:58;;;;;;;89.60;23.30;;;;;;;;;;5034314;28;20772;-75
2022/12/25 14:51:25;;;;;;;60.73;5.47;;;;;;;;;;5034914;28;20468;-75
2022/12/25 14:53:54;;;;;;;64.67;5.73;;;;;;;;;;5035312;28;20445;-76
2022/12/25 14:56:22;;;;;;;60.57;6.23;;;;;;;;;;5034739;28;20470;-75
2022/12/25 14:58:51;;;;;;;60.70;5.30;;;;;;;;;;5034189;28;20459;-75
2022/12/25 15:01:22;;;;;;;59.73;5.30;;;;;;;;;;5034126;28;20515;-75
2022/12/25 15:03:49;;;;;;;63.20;6.10;;;;;;;;;;5034378;28;20539;-75
2022/12/25 15:06:18;;;;;;;60.57;5.80;;;;;;;;;;5034985;28;20812;-76
2022/12/25 15:08:55;;;;;;;61.27;5.73;;;;;;;;;;5033789;28;20453;-76
2022/12/25 15:11:22;;;;;;;61.87;6.70;;;;;;;;;;5034022;28;21002;-76
2022/12/25 15:13:49;;;;;;;66.23;7.50;;;;;;;;;;5033932;28;20476;-76
2022/12/25 15:16:20;;;;;;;62.17;6.03;;;;;;;;;;5034810;28;20445;-76
2022/12/25 15:18:49;;;;;;;63.20;7.30;;;;;;;;;;5033871;28;20445;-75
2022/12/25 15:21:17;;;;;;;64.87;9.90;;;;;;;;;;5032965;28;20495;-75
2022/12/25 15:23:44;;;;;;;62.47;6.53;;;;;;;;;;5034257;28;20459;-74
2022/12/25 15:26:13;;;;;;;64.57;8.60;;;;;;;;;;5033805;28;20472;-75
2022/12/25 15:28:41;;;;;;;65.53;8.77;;;;;;;;;;5033211;28;20829;-75
2022/12/25 15:31:15;;;;;;;63.27;6.80;;;;;;;;;;5034339;28;20473;-75
2022/12/25 15:33:42;;;;;;;63.77;7.83;;;;;;;;;;5034466;28;20453;-74
2022/12/25 15:36:11;;;;;;;65.10;6.80;;;;;;;;;;5034077;28;20480;-75
2022/12/25 15:38:38;;;;;;;61.47;6.70;;;;;;;;;;5033600;28;20475;-75
2022/12/25 15:41:05;;;;;;;93.77;23.53;;;;;;;;;;5033731;28;20547;-74
2022/12/25 15:43:32;;;;;;;145.90;51.67;;;;;;;;;;5034219;28;20941;-74
2022/12/25 15:45:59;;;;;;;71.83;10.50;;;;;;;;;;5034650;28;20456;-75
2022/12/25 15:48:26;;;;;;;70.23;13.20;;;;;;;;;;5034144;28;20458;-74
2022/12/25 15:50:54;;;;;;;64.73;10.80;;;;;;;;;;5033199;28;20489;-74
2022/12/25 15:53:22;;;;;;;65.20;8.07;;;;;;;;;;5034204;28;20456;-74
2022/12/25 15:55:50;;;;;;;63.00;7.43;;;;;;;;;;5033848;28;20457;-74
2022/12/25 15:58:17;;;;;;;63.60;7.97;;;;;;;;;;5033810;28;20941;-74
2022/12/25 16:00:44;;;;;;;67.03;8.63;;;;;;;;;;5033097;28;20499;-74
2022/12/25 16:03:11;;;;;;;66.93;8.23;;;;;;;;;;5033759;28;20942;-75
2022/12/25 16:05:38;;;;;;;62.13;7.27;;;;;;;;;;5034156;28;20456;-74
2022/12/25 16:08:05;;;;;;;62.07;7.30;;;;;;;;;;5033840;28;20445;-75
2022/12/25 16:10:34;;;;;;;65.07;10.00;;;;;;;;;;5032624;28;20476;-75
2022/12/25 16:13:01;;;;;;;62.37;8.50;;;;;;;;;;5033604;28;20459;-75
2022/12/25 16:15:28;;;;;;;65.23;9.30;;;;;;;;;;5033741;28;20452;-74
2022/12/25 16:17:55;;;;;;;63.27;7.97;;;;;;;;;;5033356;28;20833;-74
2022/12/25 16:20:22;;;;;;;62.47;7.63;;;;;;;;;;5033013;28;20453;-74
2022/12/25 16:22:49;;;;;;;61.67;6.30;;;;;;;;;;5033538;28;21034;-74
2022/12/25 16:25:18;;;;;;;60.87;6.23;;;;;;;;;;5033557;28;20449;-75